Time;durP1;ratioP1;P1;durP2;ratioP2;P2;SDS_P1;SDS_P2;PMS_P1;PMS_P2;Temp;Humidity;BMP_temperature;BMP_pressure;BME280_temperature;BME280_humidity;BME280_pressure;Samples;Min_cycle;Max_cycle;Signal;HPM_P1;HPM_P2
2023/11/27 00:01:08;;;;;;;5.60;3.47;;;;;;;3.20;74.33;98319.59;5001228;27;103283;-64
2023/11/27 00:03:36;;;;;;;4.70;2.90;;;;;;;3.22;74.95;98317.66;4996199;27;104171;-64
2023/11/27 00:06:06;;;;;;;4.32;2.95;;;;;;;3.24;74.65;98314.94;5002490;27;103233;-64
2023/11/27 00:08:34;;;;;;;7.10;3.63;;;;;;;3.22;74.14;98311.59;5001618;27;103737;-64
2023/11/27 00:11:02;;;;;;;3.88;2.90;;;;;;;3.20;74.58;98308.31;5004608;27;102888;-64
2023/11/27 00:13:32;;;;;;;5.28;3.08;;;;;;;3.23;74.35;98305.41;4998676;28;103191;-64
2023/11/27 00:16:00;;;;;;;4.65;3.20;;;;;;;3.26;74.25;98299.91;5004526;27;103450;-64
2023/11/27 00:18:28;;;;;;;5.38;2.80;;;;;;;3.25;74.25;98290.41;5000604;27;102543;-64
2023/11/27 00:20:57;;;;;;;4.43;3.20;;;;;;;3.27;73.97;98288.50;5004371;27;103138;-64
2023/11/27 00:23:25;;;;;;;4.60;2.80;;;;;;;3.29;73.81;98291.81;5003918;27;103470;-64
2023/11/27 00:25:53;;;;;;;5.13;3.28;;;;;;;3.27;74.03;98288.50;4995040;28;103240;-65
2023/11/27 00:28:22;;;;;;;6.72;4.15;;;;;;;3.13;74.43;98282.66;5005880;27;102934;-64
2023/11/27 00:30:51;;;;;;;5.35;3.47;;;;;;;3.13;74.49;98276.56;5004867;27;102700;-64
2023/11/27 00:33:20;;;;;;;5.97;4.13;;;;;;;3.13;74.68;98272.19;5008035;27;103330;-64
2023/11/27 00:35:48;;;;;;;5.13;3.38;;;;;;;3.18;74.55;98270.97;4999636;27;103389;-64
2023/11/27 00:38:16;;;;;;;5.15;3.10;;;;;;;3.18;74.30;98269.16;5014211;27;102649;-65
2023/11/27 00:40:46;;;;;;;5.10;3.00;;;;;;;3.20;74.17;98266.44;5003422;27;103104;-64
2023/11/27 00:43:14;;;;;;;4.78;3.20;;;;;;;3.24;74.39;98267.81;5000498;27;103202;-64
2023/11/27 00:45:42;;;;;;;4.93;2.83;;;;;;;3.24;74.17;98263.41;5004949;27;103161;-64
2023/11/27 00:48:12;;;;;;;5.25;3.30;;;;;;;3.28;74.30;98258.75;5002802;27;103119;-64
2023/11/27 00:50:40;;;;;;;4.43;2.72;;;;;;;3.27;74.05;98255.28;4995587;27;102723;-63
2023/11/27 00:53:08;;;;;;;5.03;3.08;;;;;;;3.29;74.46;98242.91;4996757;27;104502;-63
2023/11/27 00:55:37;;;;;;;6.05;3.58;;;;;;;3.28;73.42;98235.19;4996358;27;103208;-64
2023/11/27 00:58:05;;;;;;;7.13;4.15;;;;;;;3.13;74.08;98234.69;5009815;27;102813;-64
2023/11/27 01:00:34;;;;;;;5.30;3.58;;;;;;;3.09;73.92;98228.09;5002211;27;102681;-64
2023/11/27 01:03:02;;;;;;;7.00;4.72;;;;;;;2.94;73.67;98235.47;5007760;27;103226;-64
2023/11/27 01:05:32;;;;;;;7.38;4.63;;;;;;;2.75;74.02;98231.81;5002999;27;103341;-64
2023/11/27 01:08:00;;;;;;;7.25;4.13;;;;;;;2.76;75.39;98228.22;4999506;27;102657;-64
2023/11/27 01:10:29;;;;;;;5.30;3.90;;;;;;;2.80;74.86;98223.56;4994270;27;104574;-64
2023/11/27 01:12:57;;;;;;;9.43;3.53;;;;;;;2.71;75.36;98213.88;4996458;27;103241;-64
2023/11/27 01:15:26;;;;;;;6.97;3.67;;;;;;;2.71;75.74;98209.50;5000200;27;103397;-64
2023/11/27 01:17:56;;;;;;;4.15;2.72;;;;;;;2.73;75.26;98207.56;4997644;27;102687;-64
2023/11/27 01:20:25;;;;;;;5.68;3.40;;;;;;;2.78;74.91;98202.78;5005021;27;102846;-64
2023/11/27 01:22:55;;;;;;;5.38;3.28;;;;;;;2.76;74.83;98211.69;5001718;27;103215;-64
2023/11/27 01:25:23;;;;;;;6.63;4.30;;;;;;;2.75;75.09;98195.19;5012831;27;103972;-64
2023/11/27 01:27:52;;;;;;;5.10;3.38;;;;;;;2.63;75.55;98198.84;5004168;28;102956;-64
2023/11/27 01:30:20;;;;;;;4.97;3.35;;;;;;;2.73;75.56;98191.06;5002220;27;103014;-64
2023/11/27 01:32:48;;;;;;;5.20;3.10;;;;;;;2.75;76.16;98184.72;5003572;27;103226;-65
2023/11/27 01:35:16;;;;;;;6.10;3.90;;;;;;;2.77;75.51;98181.97;5014286;27;103196;-65
2023/11/27 01:37:44;;;;;;;7.18;4.10;;;;;;;2.80;75.06;98177.31;5001494;27;102654;-65
2023/11/27 01:40:13;;;;;;;5.25;3.35;;;;;;;2.78;74.76;98168.78;5008698;27;102862;-65
2023/11/27 01:42:41;;;;;;;6.13;3.60;;;;;;;2.82;75.87;98159.69;5002333;27;103181;-65
2023/11/27 01:45:11;;;;;;;5.32;3.80;;;;;;;2.84;75.05;98150.91;5004251;27;102969;-65
2023/11/27 01:47:39;;;;;;;10.15;4.97;;;;;;;2.81;75.20;98147.56;5000285;27;103012;-64
2023/11/27 01:50:10;;;;;;;6.00;3.67;;;;;;;2.83;74.80;98144.84;5000036;27;102813;-63
2023/11/27 01:52:40;;;;;;;5.68;3.78;;;;;;;2.79;74.94;98148.66;4999921;27;103311;-63
2023/11/27 01:55:11;;;;;;;5.50;3.55;;;;;;;2.81;75.17;98142.34;5002794;27;103198;-63
2023/11/27 01:57:41;;;;;;;6.20;3.28;;;;;;;2.87;75.12;98140.16;4998288;27;102996;-64
2023/11/27 02:00:11;;;;;;;4.68;3.05;;;;;;;2.94;75.28;98138.69;5005358;27;104079;-64
2023/11/27 02:02:49;;;;;;;6.97;4.13;;;;;;;2.93;74.70;98140.44;5006737;27;103357;-64
2023/11/27 02:10:10;;;;;;;5.45;3.38;;;;;;;2.88;74.92;98126.94;4950465;28;102783;-64
2023/11/27 02:12:38;;;;;;;4.82;3.17;;;;;;;2.88;74.12;98126.13;4951547;28;104035;-64
2023/11/27 02:15:09;;;;;;;5.07;2.88;;;;;;;2.90;73.96;98114.56;4930879;28;103214;-64
2023/11/27 02:17:37;;;;;;;4.55;2.95;;;;;;;2.85;74.82;98118.56;4954358;28;103212;-64
2023/11/27 02:20:07;;;;;;;5.68;3.53;;;;;;;2.86;74.29;98101.91;4933181;28;102765;-64
2023/11/27 02:22:35;;;;;;;6.13;3.30;;;;;;;2.87;74.28;98104.38;4933991;28;102702;-64
2023/11/27 02:25:06;;;;;;;5.55;2.60;;;;;;;2.91;74.39;98105.78;4934838;28;103791;-64
2023/11/27 02:27:34;;;;;;;4.65;2.60;;;;;;;2.93;74.55;98100.41;4936654;28;104075;-64
2023/11/27 02:30:02;;;;;;;4.75;2.80;;;;;;;2.99;73.99;98103.31;4934230;28;104217;-64
2023/11/27 02:32:31;;;;;;;4.68;2.90;;;;;;;2.97;73.74;98101.78;4935362;28;102733;-64
2023/11/27 02:34:59;;;;;;;6.85;3.00;;;;;;;2.93;74.40;98103.00;4956838;27;104218;-64
2023/11/27 02:37:28;;;;;;;4.65;3.08;;;;;;;2.94;73.45;98102.06;5010573;27;103175;-64
2023/11/27 02:39:55;;;;;;;4.43;3.08;;;;;;;2.89;74.31;98104.25;5009151;27;102935;-65
2023/11/27 02:42:27;;;;;;;4.15;2.72;;;;;;;2.80;74.38;98095.41;5008114;27;103841;-65
2023/11/27 02:44:56;;;;;;;5.38;3.33;;;;;;;2.77;74.41;98093.06;5012649;27;103002;-65
2023/11/27 02:47:26;;;;;;;4.93;3.15;;;;;;;2.81;73.75;98095.25;5006471;27;103203;-65
2023/11/27 02:49:54;;;;;;;5.40;3.30;;;;;;;2.90;73.80;98092.81;5007333;27;102750;-65
2023/11/27 02:52:23;;;;;;;6.07;2.80;;;;;;;2.90;73.83;98088.41;5020747;27;102777;-64
2023/11/27 02:54:53;;;;;;;4.07;2.63;;;;;;;2.87;74.28;98088.69;5012256;27;103330;-65
2023/11/27 02:57:22;;;;;;;5.00;2.90;;;;;;;2.88;74.22;98090.31;5011737;27;103196;-65
2023/11/27 02:59:51;;;;;;;5.80;3.03;;;;;;;2.89;73.92;98085.94;5010027;27;102709;-65
2023/11/27 03:02:20;;;;;;;4.57;2.88;;;;;;;2.91;73.41;98089.22;5008497;27;102763;-64
2023/11/27 03:04:48;;;;;;;5.78;3.17;;;;;;;2.89;73.42;98091.16;5009585;27;103944;-65
2023/11/27 03:07:17;;;;;;;4.47;2.70;;;;;;;2.92;73.71;98080.44;5006616;27;103181;-64
2023/11/27 03:09:47;;;;;;;4.35;2.50;;;;;;;2.90;74.40;98083.19;5008967;27;102965;-65
2023/11/27 03:12:16;;;;;;;4.03;2.47;;;;;;;2.94;73.87;98071.47;5008916;27;102670;-64
2023/11/27 03:14:44;;;;;;;3.97;2.47;;;;;;;2.99;73.89;98071.91;5011909;27;103189;-64
2023/11/27 03:17:13;;;;;;;3.58;2.10;;;;;;;2.99;73.61;98071.09;5008297;27;103213;-64
2023/11/27 03:19:42;;;;;;;5.72;3.60;;;;;;;3.03;73.23;98066.41;5007399;27;102824;-63
2023/11/27 03:22:16;;;;;;;4.53;3.03;;;;;;;3.00;73.53;98062.28;5004049;27;104133;-64
2023/11/27 03:24:44;;;;;;;3.75;2.70;;;;;;;2.94;73.18;98054.97;5014619;27;103295;-64
2023/11/27 03:27:13;;;;;;;4.78;2.58;;;;;;;2.90;74.06;98056.22;5010858;27;103264;-64
2023/11/27 03:29:41;;;;;;;3.63;2.38;;;;;;;2.91;73.70;98043.00;5006568;27;102685;-64
2023/11/27 03:32:09;;;;;;;4.82;2.70;;;;;;;2.92;74.16;98049.88;5008583;27;102979;-64
2023/11/27 03:34:39;;;;;;;4.35;2.40;;;;;;;2.91;74.24;98047.38;5008960;27;103345;-65
2023/11/27 03:37:07;;;;;;;3.72;2.40;;;;;;;2.94;74.03;98047.13;5005650;27;103247;-64
2023/11/27 03:39:36;;;;;;;4.90;2.78;;;;;;;2.94;73.55;98047.13;5007765;27;102636;-64
2023/11/27 03:42:04;;;;;;;3.63;2.30;;;;;;;2.92;73.99;98049.03;5005280;27;103990;-64
2023/11/27 03:44:32;;;;;;;3.92;2.65;;;;;;;2.89;74.25;98049.31;5010412;27;103337;-64
2023/11/27 03:47:00;;;;;;;4.70;2.70;;;;;;;2.82;73.52;98044.63;5006730;27;103222;-64
2023/11/27 03:49:28;;;;;;;4.18;2.65;;;;;;;2.78;74.44;98048.47;5013630;27;102634;-64
2023/11/27 03:51:59;;;;;;;5.03;3.10;;;;;;;2.79;73.58;98038.81;5006466;27;104015;-64
2023/11/27 03:54:29;;;;;;;4.15;2.70;;;;;;;2.74;74.42;98044.47;5011976;27;103217;-64
2023/11/27 03:56:57;;;;;;;5.05;3.55;;;;;;;2.72;74.61;98032.50;5013712;27;103298;-64
2023/11/27 03:59:26;;;;;;;4.22;2.63;;;;;;;2.73;74.87;98031.53;5010918;27;102833;-64
2023/11/27 04:01:54;;;;;;;4.28;2.80;;;;;;;2.77;74.99;98025.06;5009915;27;102674;-64
2023/11/27 04:04:22;;;;;;;3.78;2.05;;;;;;;2.80;74.59;98024.78;5010949;27;103745;-64
2023/11/27 04:06:51;;;;;;;6.30;2.65;;;;;;;2.78;73.91;98022.31;5009521;27;103106;-65
2023/11/27 04:09:21;;;;;;;6.07;2.90;;;;;;;2.76;74.71;98019.00;5005412;27;102690;-65
2023/11/27 04:11:50;;;;;;;4.35;2.72;;;;;;;2.75;75.18;98022.59;5008861;27;102681;-64
2023/11/27 04:14:19;;;;;;;5.90;3.13;;;;;;;2.82;74.24;98013.22;5010345;27;105177;-64
2023/11/27 04:25:19;;;;;;;5.80;2.80;;;;;;;2.64;75.09;98009.63;5009049;27;102968;-64
2023/11/27 04:32:14;;;;;;;3.72;2.50;;;;;;;2.64;75.08;98001.78;5004720;27;103224;-64
2023/11/27 04:34:43;;;;;;;5.78;3.38;;;;;;;2.61;74.79;97999.44;5011474;27;103265;-64
2023/11/27 04:37:14;;;;;;;5.18;3.10;;;;;;;2.51;75.61;97988.16;5008007;27;102884;-64
2023/11/27 04:39:43;;;;;;;4.80;3.17;;;;;;;2.47;75.29;98001.47;5009006;27;103348;-64
2023/11/27 04:42:13;;;;;;;4.22;2.95;;;;;;;2.50;75.93;97992.53;5008980;27;103287;-64
2023/11/27 04:44:41;;;;;;;4.57;2.80;;;;;;;2.53;76.37;97989.66;5008431;27;102763;-65
2023/11/27 04:47:09;;;;;;;6.05;3.80;;;;;;;2.53;74.54;97983.59;5008809;27;103806;-65
2023/11/27 04:49:37;;;;;;;4.68;3.35;;;;;;;2.45;75.07;97984.25;5001479;27;104220;-65
2023/11/27 04:52:06;;;;;;;5.20;2.60;;;;;;;2.47;75.34;97983.16;5011506;27;102974;-65
2023/11/27 04:54:34;;;;;;;5.65;3.28;;;;;;;2.58;75.70;97979.63;5011666;27;102583;-64
2023/11/27 04:57:03;;;;;;;5.30;3.97;;;;;;;2.47;75.15;97971.91;5008786;27;102613;-64
2023/11/27 04:59:33;;;;;;;6.15;3.25;;;;;;;2.39;75.20;97969.94;5015714;27;103165;-64
2023/11/27 05:02:02;;;;;;;5.95;3.72;;;;;;;2.24;75.67;97971.28;5009586;27;103212;-65
2023/11/27 05:04:30;;;;;;;5.57;3.75;;;;;;;2.14;75.99;97971.25;5011260;27;102699;-65
2023/11/27 05:06:58;;;;;;;4.40;3.08;;;;;;;2.21;76.23;97967.16;5008147;27;102605;-65
2023/11/27 05:09:28;;;;;;;5.30;3.30;;;;;;;2.35;75.98;97957.31;5012709;27;102887;-64
2023/11/27 05:11:56;;;;;;;4.72;2.92;;;;;;;2.34;76.26;97945.19;5014112;27;103269;-64
2023/11/27 05:14:24;;;;;;;5.78;3.70;;;;;;;2.30;75.58;97944.63;5011931;27;102805;-65
2023/11/27 05:16:53;;;;;;;5.38;2.85;;;;;;;2.24;76.25;97942.53;5017060;27;103239;-65
2023/11/27 05:19:21;;;;;;;5.15;2.78;;;;;;;2.29;76.36;97942.97;5014458;27;103221;-64
2023/11/27 05:21:49;;;;;;;5.53;2.60;;;;;;;2.35;76.72;97934.59;5016891;27;103244;-64
2023/11/27 05:24:18;;;;;;;4.95;3.15;;;;;;;2.41;75.66;97934.06;5005913;27;102606;-64
2023/11/27 05:26:46;;;;;;;5.60;3.45;;;;;;;2.33;75.86;97923.44;5012764;27;103100;-64
2023/11/27 05:29:13;;;;;;;4.93;2.97;;;;;;;2.32;76.61;97924.41;5014703;27;104039;-62
2023/11/27 05:31:41;;;;;;;8.05;3.45;;;;;;;2.40;76.69;97927.19;5012042;27;103211;-62
2023/11/27 05:34:10;;;;;;;6.28;3.03;;;;;;;2.41;75.75;97925.38;5009867;27;102705;-63
2023/11/27 05:36:39;;;;;;;4.30;2.53;;;;;;;2.38;76.57;97918.63;5015161;27;102729;-64
2023/11/27 05:39:09;;;;;;;4.60;3.00;;;;;;;2.41;76.39;97915.78;5014322;27;103255;-64
2023/11/27 05:41:38;;;;;;;3.67;2.38;;;;;;;2.43;75.84;97913.81;5010607;27;103126;-64
2023/11/27 05:44:07;;;;;;;4.72;3.05;;;;;;;2.45;75.74;97911.91;5012845;27;103793;-64
2023/11/27 05:46:37;;;;;;;3.97;2.50;;;;;;;2.48;75.92;97895.94;5009342;27;102692;-64
2023/11/27 05:49:07;;;;;;;3.80;2.50;;;;;;;2.54;75.92;97899.81;5014534;27;103906;-64
2023/11/27 05:51:43;;;;;;;6.35;3.63;;;;;;;2.58;75.86;97905.59;5018425;27;103275;-64
2023/11/27 05:54:13;;;;;;;5.13;3.45;;;;;;;2.59;76.16;97900.22;5009893;27;102781;-64
2023/11/27 05:56:41;;;;;;;6.32;3.38;;;;;;;2.62;75.42;97902.56;5014805;27;102711;-64
2023/11/27 05:59:48;;;;;;;5.43;3.17;;;;;;;2.63;75.15;97895.53;5014752;27;103979;-64
2023/11/27 06:03:34;;;;;;;5.65;2.75;;;;;;;2.67;74.74;97894.31;5023400;28;103240;-66
2023/11/27 06:06:08;;;;;;;5.30;2.80;;;;;;;2.67;75.08;97891.69;5015021;27;102671;-64
2023/11/27 06:08:38;;;;;;;6.38;3.60;;;;;;;2.72;74.77;97892.09;5008211;22;103767;-65
2023/11/27 06:11:07;;;;;;;4.78;3.15;;;;;;;2.63;74.42;97890.31;4988654;28;103243;-64
2023/11/27 06:13:35;;;;;;;5.40;2.70;;;;;;;2.61;74.63;97889.66;4988389;28;103271;-64
2023/11/27 06:16:09;;;;;;;5.45;3.00;;;;;;;2.47;75.02;97889.06;4990457;28;102612;-65
2023/11/27 06:18:38;;;;;;;4.10;3.00;;;;;;;2.45;74.86;97885.78;4972274;28;103959;-65
2023/11/27 06:21:07;;;;;;;4.38;2.75;;;;;;;2.38;75.31;97881.22;4992523;28;103272;-65
2023/11/27 06:23:38;;;;;;;5.45;2.90;;;;;;;2.44;75.49;97871.06;4972325;28;103500;-65
2023/11/27 06:26:07;;;;;;;5.32;2.95;;;;;;;2.44;74.81;97868.44;4991203;28;102684;-65
2023/11/27 06:28:35;;;;;;;5.03;2.75;;;;;;;2.44;75.49;97873.66;4992267;28;104248;-65
2023/11/27 06:31:03;;;;;;;5.43;3.33;;;;;;;2.50;75.61;97867.06;4975176;28;103071;-65
2023/11/27 06:33:32;;;;;;;5.70;2.92;;;;;;;2.53;75.31;97871.19;4988655;28;103789;-65
2023/11/27 06:36:01;;;;;;;4.07;2.53;;;;;;;2.55;74.89;97869.28;4989042;28;102570;-65
2023/11/27 06:38:29;;;;;;;4.05;2.47;;;;;;;2.60;75.63;97869.69;4992956;28;102850;-65
2023/11/27 06:40:58;;;;;;;6.40;3.10;;;;;;;2.67;75.32;97868.16;4992524;28;103229;-65
2023/11/27 06:43:27;;;;;;;4.63;2.70;;;;;;;2.64;74.64;97863.22;4992088;28;102969;-65
2023/11/27 06:45:55;;;;;;;3.53;2.10;;;;;;;2.68;74.65;97858.53;4988321;28;102814;-65
2023/11/27 06:48:24;;;;;;;4.40;2.50;;;;;;;2.73;74.68;97857.16;4987549;28;102811;-66
2023/11/27 06:55:41;;;;;;;5.57;2.30;;;;;;;2.73;73.35;97845.88;4972973;28;103796;-66
2023/11/27 06:58:11;;;;;;;3.80;2.40;;;;;;;2.74;73.78;97844.88;4993864;28;103034;-66
2023/11/27 07:00:39;;;;;;;4.78;2.75;;;;;;;2.71;73.89;97837.34;4971946;28;102706;-64
2023/11/27 07:03:07;;;;;;;4.35;2.35;;;;;;;2.73;73.44;97836.22;4991914;28;103918;-65
2023/11/27 07:05:35;;;;;;;4.32;2.83;;;;;;;2.73;73.89;97835.41;4995292;28;103092;-64
2023/11/27 07:08:04;;;;;;;5.05;2.78;;;;;;;2.71;72.62;97832.09;4985377;28;102629;-65
2023/11/27 07:10:32;;;;;;;4.15;2.53;;;;;;;2.67;73.31;97826.31;4969550;28;102882;-65
2023/11/27 07:13:00;;;;;;;3.95;2.30;;;;;;;2.71;73.11;97832.09;4971554;28;104031;-65
2023/11/27 07:15:30;;;;;;;3.65;2.17;;;;;;;2.72;72.36;97829.34;4979049;28;103276;-65
2023/11/27 07:17:59;;;;;;;4.20;2.33;;;;;;;2.76;72.27;97833.31;4969914;28;102573;-65
2023/11/27 07:20:45;;;;;;;5.72;3.00;;;;;;;2.84;72.04;97826.59;4985160;28;102770;-64
2023/11/27 07:23:14;;;;;;;4.65;2.80;;;;;;;2.84;72.55;97821.34;4985685;28;103229;-64
2023/11/27 07:25:42;;;;;;;6.90;3.78;;;;;;;2.86;72.83;97816.81;4970450;28;102998;-65
2023/11/27 07:28:11;;;;;;;5.88;3.10;;;;;;;2.87;72.61;97815.84;4988298;28;102949;-65
2023/11/27 07:30:41;;;;;;;4.65;2.83;;;;;;;2.92;72.84;97811.84;4990098;28;102734;-65
2023/11/27 07:33:08;;;;;;;5.03;2.47;;;;;;;2.98;73.03;97807.84;4988011;28;103877;-65
2023/11/27 07:35:36;;;;;;;4.00;2.40;;;;;;;3.03;72.97;97795.16;4968184;28;103216;-65
2023/11/27 07:38:04;;;;;;;6.00;2.40;;;;;;;3.09;72.87;97799.81;4977333;28;102640;-65
2023/11/27 07:40:32;;;;;;;5.70;2.88;;;;;;;3.09;72.57;97794.59;4989224;28;102954;-65
2023/11/27 07:43:00;;;;;;;5.75;3.05;;;;;;;3.13;72.42;97788.09;4982346;28;104036;-65
2023/11/27 07:45:29;;;;;;;3.90;2.60;;;;;;;3.14;72.35;97781.91;4985293;28;103215;-65
2023/11/27 07:47:58;;;;;;;4.45;2.47;;;;;;;3.12;71.65;97780.41;4988097;28;102665;-65
2023/11/27 07:50:29;;;;;;;7.13;2.50;;;;;;;3.14;72.09;97774.06;4981826;28;103141;-65
2023/11/27 07:52:57;;;;;;;6.00;2.72;;;;;;;3.20;71.93;97771.84;4989213;28;104034;-65
2023/11/27 07:55:25;;;;;;;5.70;2.92;;;;;;;3.18;70.95;97764.09;4983604;28;103302;-65
2023/11/27 07:57:53;;;;;;;4.85;2.88;;;;;;;3.19;71.53;97767.56;4990463;28;102632;-65
2023/11/27 08:00:22;;;;;;;6.15;3.63;;;;;;;3.20;71.14;97761.38;4989018;28;103598;-65
2023/11/27 08:02:54;;;;;;;5.33;3.33;;;;;;;3.23;71.10;97758.44;4984398;28;103386;-65
2023/11/27 08:05:24;;;;;;;5.13;3.30;;;;;;;3.20;70.65;97753.50;4990438;28;103251;-65
2023/11/27 08:07:55;;;;;;;4.55;2.88;;;;;;;3.10;70.88;97751.72;4988616;28;103001;-65
2023/11/27 08:10:23;;;;;;;8.40;3.60;;;;;;;3.21;70.10;97750.75;4987615;28;102746;-65
2023/11/27 08:12:52;;;;;;;8.13;3.15;;;;;;;3.31;70.87;97748.06;4987601;28;103145;-65
2023/11/27 08:15:20;;;;;;;8.07;3.38;;;;;;;3.31;69.68;97745.44;4968377;28;104277;-65
2023/11/27 08:17:49;;;;;;;5.63;3.08;;;;;;;3.35;70.36;97749.44;4962785;28;103477;-65
2023/11/27 08:20:17;;;;;;;4.95;3.03;;;;;;;3.41;69.71;97738.38;4989057;28;103678;-65
2023/11/27 08:22:47;;;;;;;3.95;2.38;;;;;;;3.47;69.89;97739.59;4969161;28;103185;-65
2023/11/27 08:25:16;;;;;;;3.88;2.50;;;;;;;3.47;69.74;97735.19;4991295;28;103336;-65
2023/11/27 08:27:46;;;;;;;5.43;2.90;;;;;;;3.57;69.89;97734.31;4983692;28;102968;-60
2023/11/27 08:30:17;;;;;;;3.47;2.25;;;;;;;3.60;69.85;97726.13;4983563;28;102718;-67
2023/11/27 08:32:46;;;;;;;4.28;2.75;;;;;;;3.67;69.22;97729.84;4986726;28;104104;-65
2023/11/27 08:35:18;;;;;;;5.93;2.67;;;;;;;3.73;69.68;97726.59;4986257;28;103452;-63
2023/11/27 08:37:47;;;;;;;4.55;2.47;;;;;;;3.76;69.25;97723.69;4986195;28;103388;-63
2023/11/27 08:40:16;;;;;;;6.32;2.70;;;;;;;3.78;68.99;97721.75;4984953;28;103777;-63
2023/11/27 08:42:44;;;;;;;5.00;3.13;;;;;;;3.81;68.89;97710.13;4991548;28;104150;-65
2023/11/27 08:45:16;;;;;;;4.60;2.72;;;;;;;3.79;68.51;97715.53;4990487;28;103264;-65
2023/11/27 08:47:50;;;;;;;4.43;2.60;;;;;;;3.77;68.41;97714.88;4972511;28;102695;-63
2023/11/27 08:50:20;;;;;;;6.72;2.70;;;;;;;3.72;67.50;97706.63;4985740;28;102845;-63
2023/11/27 08:52:50;;;;;;;6.72;2.92;;;;;;;3.73;67.88;97700.41;4986791;28;103779;-65
2023/11/27 08:55:19;;;;;;;6.50;2.60;;;;;;;3.75;67.82;97695.84;4987599;28;103757;-65
2023/11/27 08:57:47;;;;;;;5.05;3.00;;;;;;;3.75;67.32;97695.03;4988845;28;102628;-65
2023/11/27 09:00:18;;;;;;;6.32;3.03;;;;;;;3.79;67.18;97688.53;4992534;28;103818;-64
2023/11/27 09:02:48;;;;;;;4.55;2.70;;;;;;;3.78;67.46;97695.53;4987203;28;103212;-64
2023/11/27 09:05:16;;;;;;;5.82;3.17;;;;;;;3.83;67.07;97692.50;4983007;28;103162;-65
2023/11/27 09:07:47;;;;;;;5.10;2.92;;;;;;;3.91;67.29;97683.88;4987320;28;102641;-65
2023/11/27 09:10:17;;;;;;;4.60;2.35;;;;;;;3.96;67.75;97681.63;4991010;28;102997;-65
2023/11/27 09:12:45;;;;;;;4.35;2.88;;;;;;;3.95;66.91;97674.75;4988851;28;103444;-63
2023/11/27 09:15:13;;;;;;;4.57;3.00;;;;;;;3.98;66.58;97671.81;4969786;28;103406;-63
2023/11/27 09:17:41;;;;;;;9.77;3.17;;;;;;;3.94;65.90;97663.44;4972802;28;102690;-65
2023/11/27 09:20:11;;;;;;;3.92;2.55;;;;;;;4.06;66.30;97664.03;4995982;28;102583;-65
2023/11/27 09:22:39;;;;;;;4.50;2.88;;;;;;;4.11;66.45;97664.41;4996178;28;103393;-65
2023/11/27 09:29:28;;;;;;;6.07;2.90;;;;;;;4.04;65.55;97642.38;4962637;28;103003;-63
2023/11/27 09:31:59;;;;;;;7.15;2.80;;;;;;;4.06;64.90;97629.13;4990379;28;103633;-65
2023/11/27 09:34:27;;;;;;;5.07;2.92;;;;;;;4.17;65.56;97633.28;4988418;28;103249;-65
2023/11/27 09:36:56;;;;;;;7.43;3.30;;;;;;;4.20;65.17;97643.50;4988949;28;103386;-65
2023/11/27 09:39:32;;;;;;;6.57;3.47;;;;;;;4.30;65.21;97638.97;4988971;28;103151;-65
2023/11/27 09:42:00;;;;;;;6.93;2.67;;;;;;;4.29;64.71;97634.69;4977047;28;103986;-63
2023/11/27 09:44:29;;;;;;;6.15;2.85;;;;;;;4.37;65.09;97634.75;4993746;28;104087;-63
2023/11/27 09:46:59;;;;;;;3.90;2.60;;;;;;;4.38;63.71;97618.03;4995465;28;103239;-63
2023/11/27 09:49:28;;;;;;;5.10;2.92;;;;;;;4.46;63.88;97609.41;4995368;28;102623;-64
2023/11/27 09:51:58;;;;;;;4.50;2.50;;;;;;;4.48;64.05;97608.25;4998237;28;102949;-65
2023/11/27 09:54:32;;;;;;;4.45;2.38;;;;;;;4.53;63.33;97607.78;4992374;28;102965;-65
2023/11/27 09:57:03;;;;;;;3.80;2.35;;;;;;;4.58;62.96;97596.84;4973180;28;103249;-65
2023/11/27 09:59:38;;;;;;;3.33;2.00;;;;;;;4.61;62.42;97586.03;4997403;28;102818;-63
2023/11/27 10:02:08;;;;;;;5.07;2.65;;;;;;;4.67;61.75;97587.22;4992591;28;102732;-65
2023/11/27 10:04:37;;;;;;;6.55;2.75;;;;;;;4.64;61.03;97581.28;4973983;28;103882;-65
2023/11/27 10:07:06;;;;;;;3.20;1.85;;;;;;;4.56;59.49;97568.16;4995862;28;103198;-65
2023/11/27 10:09:35;;;;;;;4.38;2.20;;;;;;;4.79;60.23;97563.16;4998990;28;102799;-65
2023/11/27 10:12:06;;;;;;;4.35;2.13;;;;;;;4.77;59.90;97549.38;4995747;28;104138;-65
2023/11/27 10:14:36;;;;;;;5.20;2.03;;;;;;;4.87;60.46;97532.66;4992146;28;103996;-65
2023/11/27 10:17:07;;;;;;;4.50;2.08;;;;;;;4.87;59.04;97530.03;4977768;28;103263;-63
2023/11/27 10:19:40;;;;;;;4.38;2.08;;;;;;;4.96;59.28;97523.84;4991928;28;103082;-63
2023/11/27 10:22:08;;;;;;;3.87;2.20;;;;;;;5.02;58.25;97517.94;4978400;28;103892;-65
2023/11/27 10:24:37;;;;;;;5.20;2.00;;;;;;;5.01;58.87;97500.56;4992750;28;103036;-66
2023/11/27 10:27:08;;;;;;;3.75;2.13;;;;;;;5.08;59.01;97508.59;4993185;28;103323;-63
2023/11/27 10:29:40;;;;;;;3.35;2.13;;;;;;;5.13;59.63;97507.13;4991447;28;102705;-63
2023/11/27 10:32:10;;;;;;;5.55;2.10;;;;;;;5.18;59.46;97497.97;4993194;28;102633;-63
2023/11/27 10:34:40;;;;;;;5.10;1.98;;;;;;;5.22;59.07;97497.44;4972113;28;104496;-63
2023/11/27 10:37:08;;;;;;;5.43;2.72;;;;;;;5.31;59.59;97490.41;4991888;28;103207;-63
2023/11/27 10:39:37;;;;;;;5.07;2.40;;;;;;;5.23;58.52;97490.41;4991033;28;102977;-63
2023/11/27 10:42:07;;;;;;;5.78;2.83;;;;;;;5.25;59.18;97467.44;4993322;28;103795;-65
2023/11/27 10:44:36;;;;;;;7.43;2.45;;;;;;;5.29;59.60;97473.97;4989262;28;103510;-65
2023/11/27 10:47:10;;;;;;;3.63;2.15;;;;;;;5.28;58.73;97459.25;4972691;28;103445;-63
2023/11/27 10:49:41;;;;;;;3.58;2.13;;;;;;;5.22;58.68;97449.38;4991501;28;102575;-63
2023/11/27 10:52:10;;;;;;;3.88;2.40;;;;;;;5.21;58.79;97445.13;4994265;28;103900;-65
2023/11/27 10:54:48;;;;;;;4.70;2.20;;;;;;;5.17;58.17;97438.56;4993723;28;103883;-64
2023/11/27 10:57:19;;;;;;;3.95;2.10;;;;;;;5.20;57.52;97425.94;4990659;28;103207;-63
2023/11/27 10:59:48;;;;;;;8.85;2.40;;;;;;;5.15;57.70;97417.72;4995308;28;103144;-65
2023/11/27 11:02:26;;;;;;;3.80;2.10;;;;;;;5.13;57.48;97407.38;4994987;28;103060;-64
2023/11/27 11:05:00;;;;;;;5.97;2.88;;;;;;;5.20;57.77;97401.47;5000208;28;103351;-66
2023/11/27 11:07:36;;;;;;;6.20;2.40;;;;;;;5.41;57.39;97393.06;4994390;28;103323;-65
2023/11/27 11:10:09;;;;;;;5.22;2.45;;;;;;;5.42;57.25;97394.72;4977632;28;102743;-65
2023/11/27 11:12:40;;;;;;;3.33;2.13;;;;;;;5.38;57.48;97381.09;4994191;28;102857;-64
2023/11/27 11:15:13;;;;;;;5.13;2.40;;;;;;;5.39;56.99;97380.13;4992865;28;103409;-64
2023/11/27 11:17:47;;;;;;;;;;;;;;;5.31;57.09;97372.25;4992995;28;103282;-64
2023/11/27 11:20:25;;;;;;;6.30;2.72;;;;;;;5.40;57.14;97358.13;4991473;28;102870;-64
2023/11/27 11:23:07;;;;;;;4.43;2.80;;;;;;;5.52;57.19;97358.59;4970986;28;103887;-65
2023/11/27 11:25:51;;;;;;;4.43;2.13;;;;;;;5.61;56.46;97347.06;4990221;28;104577;-65
2023/11/27 11:28:26;;;;;;;5.78;2.47;;;;;;;5.54;56.34;97335.59;4994929;28;103275;-65
2023/11/27 11:31:10;;;;;;;4.60;2.20;;;;;;;5.57;57.07;97334.44;4993785;28;102652;-65
2023/11/27 11:33:40;;;;;;;3.35;2.30;;;;;;;5.56;57.20;97324.94;4993251;28;102637;-65
2023/11/27 11:36:12;;;;;;;3.28;2.00;;;;;;;5.47;56.76;97322.31;4973099;28;103306;-63
2023/11/27 11:38:45;;;;;;;5.47;2.60;;;;;;;5.42;57.02;97318.56;4991734;28;103235;-63
2023/11/27 11:41:13;;;;;;;3.97;2.57;;;;;;;5.37;57.35;97303.34;4992315;28;102573;-65
2023/11/27 11:43:42;;;;;;;5.82;3.10;;;;;;;5.48;57.14;97310.81;4993312;28;102703;-63
2023/11/27 11:46:18;;;;;;;6.78;2.50;;;;;;;5.31;56.41;97298.75;4992763;28;103908;-65
2023/11/27 11:48:53;;;;;;;4.22;2.58;;;;;;;5.34;56.69;97300.22;4989544;28;103183;-65
2023/11/27 11:51:24;;;;;;;3.58;2.40;;;;;;;5.28;57.60;97292.03;4972153;28;102749;-65
2023/11/27 11:53:53;;;;;;;5.47;2.60;;;;;;;5.27;57.46;97292.22;4973889;28;104088;-65
2023/11/27 11:56:23;;;;;;;4.97;2.50;;;;;;;5.28;57.10;97283.34;4992175;28;103824;-65
2023/11/27 11:59:01;;;;;;;4.15;2.55;;;;;;;5.36;57.64;97275.44;4992177;28;103181;-64
2023/11/27 12:01:32;;;;;;;5.10;2.63;;;;;;;5.36;56.87;97280.69;4990525;28;105004;-64
2023/11/27 12:04:07;;;;;;;4.30;2.70;;;;;;;5.32;56.92;97272.31;4992596;28;103989;-64
2023/11/27 12:06:40;;;;;;;4.50;2.45;;;;;;;5.35;57.12;97263.28;4971861;28;104269;-64
2023/11/27 12:09:12;;;;;;;4.90;2.65;;;;;;;5.30;56.76;97265.59;4985039;28;103368;-64
2023/11/27 12:11:40;;;;;;;3.42;2.10;;;;;;;5.29;56.68;97258.72;4996205;28;102682;-64
2023/11/27 12:14:14;;;;;;;4.85;2.50;;;;;;;5.24;56.23;97245.28;4992915;28;102795;-64